createdAt,value
2022-10-05T00:00:59.934Z,9.89
2022-10-05T00:06:02.076Z,9.87
2022-10-05T00:11:07.924Z,9.93
2022-10-05T00:16:19.983Z,9.87
2022-10-05T00:21:33.367Z,10.30
2022-10-05T00:26:35.460Z,9.85
2022-10-05T00:31:37.630Z,9.79
2022-10-05T00:36:40.465Z,9.70
2022-10-05T00:41:42.468Z,9.68
2022-10-05T00:46:47.626Z,10.07
2022-10-05T00:52:04.844Z,9.84
2022-10-05T00:57:21.579Z,9.66
2022-10-05T01:02:45.179Z,9.73
2022-10-05T01:08:02.423Z,9.58
2022-10-05T01:13:23.200Z,9.83
2022-10-05T01:18:40.674Z,9.72
2022-10-05T01:24:07.602Z,9.93
2022-10-05T01:29:21.415Z,9.84
2022-10-05T01:34:34.265Z,9.80
2022-10-05T01:39:53.735Z,9.79
2022-10-05T01:45:06.038Z,9.57
2022-10-05T01:50:11.756Z,9.55
2022-10-05T01:55:38.414Z,9.55
2022-10-05T02:00:52.929Z,9.42
2022-10-05T02:06:23.226Z,9.46
2022-10-05T02:11:26.314Z,9.35
2022-10-05T02:16:28.516Z,9.34
2022-10-05T02:21:34.566Z,9.39
2022-10-05T02:26:39.998Z,9.33
2022-10-05T02:32:12.863Z,9.52
2022-10-05T02:37:39.953Z,9.43
2022-10-05T02:42:55.018Z,9.46
2022-10-05T02:48:11.885Z,9.46
2022-10-05T02:53:26.731Z,9.40
2022-10-05T02:58:35.014Z,9.27
2022-10-05T03:03:47.487Z,9.21
2022-10-05T03:09:05.343Z,9.27
2022-10-05T03:14:22.454Z,9.26
2022-10-05T03:19:52.865Z,9.32
2022-10-05T03:25:17.073Z,9.44
2022-10-05T03:30:22.938Z,9.23
2022-10-05T03:35:33.043Z,9.32
2022-10-05T03:40:48.597Z,9.25
2022-10-05T03:46:03.046Z,9.28
2022-10-05T03:51:13.203Z,9.27
2022-10-05T03:56:33.618Z,9.16
2022-10-05T04:01:48.595Z,9.15
2022-10-05T04:06:53.502Z,9.04
2022-10-05T04:12:25.903Z,9.15
2022-10-05T04:17:35.817Z,9.06
2022-10-05T04:22:44.274Z,9.00
2022-10-05T04:28:11.656Z,9.16
2022-10-05T04:33:16.027Z,9.03
2022-10-05T04:38:48.297Z,9.23
2022-10-05T04:44:02.047Z,9.26
2022-10-05T04:49:32.208Z,9.37
2022-10-05T04:54:46.464Z,9.45
2022-10-05T04:59:54.749Z,9.42
2022-10-05T05:05:08.333Z,9.57
2022-10-05T05:10:21.499Z,9.72
2022-10-05T05:15:39.647Z,9.72
2022-10-05T05:20:57.433Z,9.75
2022-10-05T05:26:29.038Z,9.87
2022-10-05T05:31:45.793Z,9.80
2022-10-05T05:37:24.498Z,10.02
2022-10-05T05:42:47.352Z,9.96
2022-10-05T05:47:54.095Z,10.13
2022-10-05T05:53:09.828Z,10.21
2022-10-05T05:58:18.095Z,10.22
2022-10-05T06:03:29.032Z,10.24
2022-10-05T06:08:44.640Z,10.32
2022-10-05T06:14:00.759Z,10.33
2022-10-05T06:19:10.492Z,10.37
2022-10-05T06:24:37.589Z,10.61
2022-10-05T06:29:54.674Z,10.55
2022-10-05T06:35:04.456Z,10.25
2022-10-05T06:40:23.387Z,10.28
2022-10-05T06:45:41.797Z,10.44
2022-10-05T06:51:09.981Z,10.33
2022-10-05T06:56:48.856Z,10.22
2022-10-05T07:02:03.477Z,10.16
2022-10-05T07:07:34.942Z,10.02
2022-10-05T07:12:55.479Z,10.15
2022-10-05T07:18:22.559Z,10.43
2022-10-05T07:23:51.052Z,10.96
2022-10-05T07:29:15.227Z,11.78
2022-10-05T07:34:22.944Z,12.70
2022-10-05T07:39:59.204Z,13.99
2022-10-05T07:45:14.945Z,15.41
2022-10-05T07:50:25.900Z,15.71
2022-10-05T07:55:37.079Z,15.47
2022-10-05T08:00:49.204Z,15.15
2022-10-05T08:05:52.020Z,13.98
2022-10-05T08:11:22.028Z,13.81
2022-10-05T08:16:31.247Z,13.34
2022-10-05T08:21:41.514Z,13.08
2022-10-05T08:27:04.339Z,13.42
2022-10-05T08:32:35.687Z,14.13
2022-10-05T08:37:41.686Z,14.63
2022-10-05T08:43:17.575Z,14.62
2022-10-05T08:48:34.572Z,13.88
2022-10-05T08:54:16.694Z,13.59
2022-10-05T08:59:45.039Z,13.28
2022-10-05T09:05:01.087Z,12.50
2022-10-05T09:10:37.411Z,12.22
2022-10-05T09:15:42.546Z,11.87
2022-10-05T09:21:13.096Z,11.82
2022-10-05T09:26:44.195Z,11.76
2022-10-05T09:31:49.008Z,11.85
2022-10-05T09:37:14.194Z,13.05
2022-10-05T09:42:49.726Z,17.02
2022-10-05T09:48:23.854Z,20.50
2022-10-05T09:53:41.112Z,19.93
2022-10-05T09:59:21.799Z,18.59
2022-10-05T10:04:40.207Z,16.37
2022-10-05T10:09:48.251Z,15.14
2022-10-05T10:15:24.544Z,16.02
2022-10-05T10:20:38.045Z,17.21
2022-10-05T10:25:43.114Z,18.29
2022-10-05T10:31:00.388Z,21.38
2022-10-05T10:36:18.430Z,22.37
2022-10-05T10:41:39.186Z,21.57
2022-10-05T10:47:19.798Z,21.97
2022-10-05T10:52:40.443Z,21.06
2022-10-05T10:58:09.364Z,21.04
2022-10-05T11:03:33.180Z,20.79
2022-10-05T11:09:23.605Z,20.27
2022-10-05T11:15:07.100Z,20.45
2022-10-05T11:20:58.075Z,20.57
2022-10-05T11:26:27.550Z,20.29
2022-10-05T11:31:39.420Z,22.77
2022-10-05T11:37:05.787Z,23.01
2022-10-05T11:42:29.324Z,20.60
2022-10-05T11:48:04.467Z,18.65
2022-10-05T11:53:24.503Z,16.81
2022-10-05T11:58:33.377Z,15.74
2022-10-05T12:03:41.175Z,14.93
2022-10-05T12:09:03.883Z,14.19
2022-10-05T12:14:16.673Z,13.48
2022-10-05T12:19:29.905Z,13.27
2022-10-05T12:25:06.655Z,13.27
2022-10-05T12:30:15.060Z,12.83
2022-10-05T12:35:47.995Z,12.80
2022-10-05T12:41:00.274Z,12.95
2022-10-05T12:46:17.889Z,13.57
2022-10-05T12:51:35.530Z,14.16
2022-10-05T12:56:50.775Z,16.00
2022-10-05T13:02:05.817Z,17.49
2022-10-05T13:07:17.733Z,16.96
2022-10-05T13:12:36.297Z,15.71
2022-10-05T13:17:49.406Z,14.63
2022-10-05T13:23:02.721Z,14.23
2022-10-05T13:28:19.453Z,14.15
2022-10-05T13:33:53.443Z,14.69
2022-10-05T13:39:00.043Z,15.22
2022-10-05T13:44:09.251Z,15.16
2022-10-05T13:55:41.301Z,14.13
2022-10-05T14:01:08.975Z,13.45
2022-10-05T14:06:13.943Z,12.86
2022-10-05T14:11:31.713Z,12.86
2022-10-05T14:16:35.752Z,12.61
2022-10-05T14:21:52.533Z,12.66
2022-10-05T14:26:57.368Z,12.38
2022-10-05T14:32:02.635Z,12.15
2022-10-05T14:37:19.060Z,11.99
2022-10-05T14:42:28.836Z,11.83
2022-10-05T14:47:32.320Z,11.56
2022-10-05T14:52:35.857Z,11.47
2022-10-05T14:57:48.148Z,11.44
2022-10-05T15:02:50.213Z,11.68
2022-10-05T15:07:59.089Z,11.25
2022-10-05T15:13:17.757Z,11.21
2022-10-05T15:18:23.050Z,10.78
2022-10-05T15:23:42.882Z,10.70
2022-10-05T15:29:09.805Z,10.66
2022-10-05T15:34:27.629Z,10.44
2022-10-05T15:39:39.431Z,10.35
2022-10-05T15:44:59.184Z,10.42
2022-10-05T15:50:15.835Z,10.31
2022-10-05T15:55:27.908Z,10.24
2022-10-05T16:00:33.771Z,10.57
2022-10-05T16:05:57.337Z,10.37
2022-10-05T16:11:00.091Z,10.27
2022-10-05T16:16:16.241Z,10.40
2022-10-05T16:21:27.443Z,10.21
2022-10-05T16:26:44.743Z,10.35
2022-10-05T16:32:08.511Z,10.40
2022-10-05T16:37:26.029Z,10.34
2022-10-05T16:42:28.303Z,10.23
2022-10-05T16:48:01.110Z,10.35
2022-10-05T16:53:14.629Z,10.17
2022-10-05T16:58:37.817Z,10.13
2022-10-05T17:03:57.252Z,10.12
2022-10-05T17:09:05.371Z,9.92
2022-10-05T17:14:37.965Z,10.06
2022-10-05T17:19:47.055Z,9.93
2022-10-05T17:25:11.216Z,9.96
2022-10-05T17:30:38.988Z,10.00
2022-10-05T17:35:53.682Z,9.93
2022-10-05T17:41:19.681Z,9.94
2022-10-05T17:46:46.039Z,10.00
2022-10-05T17:52:21.105Z,9.82
2022-10-05T17:57:27.895Z,9.73
2022-10-05T18:02:36.619Z,9.57
2022-10-05T18:07:41.034Z,9.39
2022-10-05T18:13:11.483Z,9.37
2022-10-05T18:18:32.840Z,9.33
2022-10-05T18:23:37.129Z,9.06
2022-10-05T18:28:47.265Z,8.96
2022-10-05T18:33:56.910Z,8.91
2022-10-05T18:39:06.796Z,8.78
2022-10-05T18:44:47.604Z,8.75
2022-10-05T18:50:02.279Z,8.62
2022-10-05T18:55:22.618Z,8.58
2022-10-05T19:00:25.948Z,8.43
2022-10-05T19:06:08.308Z,8.63
2022-10-05T19:11:38.690Z,8.75
2022-10-05T19:17:05.934Z,8.85
2022-10-05T19:22:08.222Z,8.89
2022-10-05T19:27:38.077Z,9.10
2022-10-05T19:32:50.224Z,9.10
2022-10-05T19:38:02.678Z,9.22
2022-10-05T19:43:14.360Z,9.28
2022-10-05T19:48:28.510Z,9.33
2022-10-05T19:53:38.404Z,9.33
2022-10-05T19:58:40.473Z,9.27
2022-10-05T20:03:47.923Z,9.33
2022-10-05T20:08:52.613Z,9.28
2022-10-05T20:13:57.375Z,9.22
2022-10-05T20:19:18.206Z,9.19
2022-10-05T20:24:28.764Z,9.31
2022-10-05T20:29:40.553Z,9.26
2022-10-05T20:34:44.762Z,9.21
2022-10-05T20:39:48.063Z,9.12
2022-10-05T20:44:55.796Z,9.01
2022-10-05T20:49:58.912Z,8.87
2022-10-05T20:55:01.859Z,8.73
2022-10-05T21:00:06.379Z,8.60
2022-10-05T21:05:09.187Z,8.46
2022-10-05T21:10:11.683Z,8.35
2022-10-05T21:15:14.115Z,8.24
2022-10-05T21:34:05.632Z,8.25
2022-10-05T21:39:16.745Z,8.71
2022-10-05T21:44:19.054Z,8.41
2022-10-05T21:49:21.715Z,8.47
2022-10-05T21:54:24.411Z,8.55
2022-10-05T21:59:29.634Z,8.59
2022-10-05T22:04:31.787Z,8.65
2022-10-05T22:09:33.855Z,8.64
2022-10-05T22:14:35.944Z,8.87
2022-10-05T22:19:37.863Z,9.35
2022-10-05T22:24:40.017Z,8.96
2022-10-05T22:29:42.308Z,8.89
2022-10-05T22:34:44.399Z,8.93
2022-10-05T22:39:46.554Z,8.99
2022-10-05T22:44:48.606Z,8.97
2022-10-05T22:49:50.519Z,9.41
2022-10-05T22:54:52.582Z,9.07
2022-10-05T22:59:54.512Z,9.49
2022-10-05T23:04:56.572Z,9.23
2022-10-05T23:09:59.199Z,9.68
2022-10-05T23:15:02.033Z,9.39
2022-10-05T23:20:08.608Z,9.43
2022-10-05T23:25:10.750Z,9.43
2022-10-05T23:30:13.739Z,9.47
2022-10-05T23:35:15.932Z,9.53
2022-10-05T23:40:18.275Z,9.39
2022-10-05T23:45:20.338Z,9.40
2022-10-05T23:50:25.003Z,9.95
2022-10-05T23:55:27.063Z,9.54
